EW2682 Weather Reports


time (UTC)temp
C
wind
direction
speed
KPH
gust
KPH
rain 1hr
cm
rain 24hr
cm
rain mn
cm
humidity
%
barometer
mb
20200229080223 18 0.0 0.0 0.00 0.00 0.00 37 1017.0
20200229075219 18 0.0 0.0 0.00 0.00 0.00 37 1017.0
20200229074219 18 0.0 0.0 0.00 0.00 0.00 39 1017.1
20200229073219 18 0.0 0.0 0.00 0.00 0.00 41 1017.2
20200229072219 18 0.0 0.0 0.00 0.00 0.00 40 1017.1
20200229071219 18 0.0 0.0 0.00 0.00 0.00 40 1017.3
20200229070219 18 0.0 0.0 0.00 0.00 0.00 40 1017.3
20200229065218 18 0.0 0.0 0.00 0.00 0.00 40 1017.4
20200229064218 18 0.0 0.0 0.00 0.00 0.00 40 1017.4
20200229063217 18 0.0 0.0 0.00 0.00 0.00 40 1017.6
20200229062217 19 0.0 0.0 0.00 0.00 0.00 41 1017.6
20200229061217 19 0.0 0.0 0.00 0.00 0.00 40 1017.5
20200229060218 19 0.0 0.0 0.00 0.00 0.00 40 1017.6
20200229055217 19 0.0 0.0 0.00 0.00 0.00 39 1017.5
20200229054218 20 0.0 0.0 0.00 0.00 0.00 40 1017.4
20200229053217 20 0.0 0.0 0.00 0.00 0.00 40 1017.2
20200229052217 20 0.0 0.0 0.00 0.00 0.00 40 1017.2
20200229051217 20 0.0 0.0 0.00 0.00 0.00 40 1017.4
20200229050217 20 0.0 0.0 0.00 0.00 0.00 40 1017.5
20200229045218 20 0.0 0.0 0.00 0.00 0.00 40 1017.4
20200229044217 21 0.0 0.0 0.00 0.00 0.00 39 1017.5
20200229043217 21 0.0 0.0 0.00 0.00 0.00 39 1017.4
20200229042218 21 0.0 0.0 0.00 0.00 0.00 39 1017.7
20200229041218 21 0.0 0.0 0.00 0.00 0.00 38 1017.5
20200229040219 22 0.0 0.0 0.00 0.00 0.00 37 1017.5
20200229035218 22 0.0 0.0 0.00 0.00 0.00 36 1017.4
20200229034217 22 0.0 0.0 0.00 0.00 0.00 36 1017.4
20200229033217 22 0.0 0.0 0.00 0.00 0.00 36 1017.4
20200229032217 22 0.0 0.0 0.00 0.00 0.00 36 1017.3
20200229031218 22 0.0 0.0 0.00 0.00 0.00 35 1017.1
20200229030217 23 0.0 0.0 0.00 0.00 0.00 35
20200229025228 23 0.0 0.0 0.00 0.00 0.00 34
20200229024217 23 0.0 0.0 0.00 0.00 0.00 34
20200229023219 23 0.0 0.0 0.00 0.00 0.00 33
20200229022219 24 0.0 3.2 0.00 0.00 0.00 32
20200229021219 25 0.0 0.0 0.00 0.00 0.00 30
20200229020219 25 0.0 0.0 0.00 0.00 0.00 29
20200229015219 25 0.0 0.0 0.00 0.00 0.00 26
20200229014218 25 0.0 3.2 0.00 0.00 0.00 23 1016.4
20200229013219 26 0.0 0.0 0.00 0.00 0.00 20 1016.6
20200229012219 26 0.0 0.0 0.00 0.00 0.00 20 1016.4
20200229011220 26 0.0 0.0 0.00 0.00 0.00 20 1016.5
20200229010219 26 0.0 0.0 0.00 0.00 0.00 20 1016.5
20200229005219 26 0.0 0.0 0.00 0.00 0.00 19 1016.5
20200229004219 27 0.0 0.0 0.00 0.00 0.00 19 1016.7
20200229003219 27 225 1.6 6.4 0.00 0.00 0.00 19 1016.7
20200229002219 28 0.0 3.2 0.00 0.00 0.00 17 1016.6
20200229001219 28 0.0 3.2 0.00 0.00 0.00 16 1016.8
20200229000219 28 0.0 1.6 0.00 0.00 0.00 15 1016.7
20200228235219 28 248 3.2 9.7 0.00 0.00 0.00 15 1016.7
20200228234219 29 0.0 3.2 0.00 0.00 0.00 15 1016.7
20200228233217 29 0.0 0.0 0.00 0.00 0.00 14 1016.4
20200228232219 29 0.0 0.0 0.00 0.00 0.00 12 1016.5
20200228231219 29 0.0 3.2 0.00 0.00 0.00 12 1016.6
20200228230220 29 0.0 3.2 0.00 0.00 0.00 12 1016.6
20200228225219 29 0.0 4.8 0.00 0.00 0.00 13 1016.8
20200228224219 29 248 3.2 6.4 0.00 0.00 0.00 13 1016.9
20200228223219 29 0.0 3.2 0.00 0.00 0.00 12 1016.8
20200228222220 29 293 1.6 3.2 0.00 0.00 0.00 12 1017.0
20200228221218 30 0.0 3.2 0.00 0.00 0.00 12 1016.9
20200228220219 30 248 3.2 8.0 0.00 0.00 0.00 11 1017.2
20200228215219 30 270 8.0 14.5 0.00 0.00 0.00 11 1017.0
20200228214219 30 0.0 0.0 0.00 0.00 0.00 13 1016.8
20200228213219 31 0.0 1.6 0.00 0.00 0.00 12 1016.7
20200228212219 31 0.0 0.0 0.00 0.00 0.00 11 1016.7
20200228211219 31 0.0 1.6 0.00 0.00 0.00 11 1016.7
20200228210218 31 0.0 0.0 0.00 0.00 0.00 12 1016.8
20200228205218 31 0.0 0.0 0.00 0.00 0.00 14 1017.0
20200228204219 31 0.0 0.0 0.00 0.00 0.00 14 1017.0
20200228203221 31 225 1.6 4.8 0.00 0.00 0.00 13 1017.0
20200228202219 30 0.0 0.0 0.00 0.00 0.00 13 1017.2
20200228201219 30 0.0 0.0 0.00 0.00 0.00 13 1017.2
20200228200218 30 0.0 0.0 0.00 0.00 0.00 15 1017.4
20200228195219 30 0.0 0.0 0.00 0.00 0.00 15 1017.5
20200228194218 30 180 1.6 11.3 0.00 0.00 0.00 14 1017.9
20200228193219 28 180 1.6 8.0 0.00 0.00 0.00 15 1018.0
20200228192218 27 0.0 0.0 0.00 0.00 0.00 15 1018.1
20200228191220 26 90 1.6 4.8 0.00 0.00 0.00 15 1018.1
20200228190220 26 113 3.2 6.4 0.00 0.00 0.00 15 1018.3
20200228185220 26 0.0 4.8 0.00 0.00 0.00 15 1018.3
20200228184220 26 0.0 0.0 0.00 0.00 0.00 16 1018.3
20200228183218 25 68 1.6 8.0 0.00 0.00 0.00 17 1018.3
20200228182218 25 68 1.6 4.8 0.00 0.00 0.00 17 1018.5
20200228181219 25 0.0 6.4 0.00 0.00 0.00 16 1018.7
20200228180218 25 0.0 3.2 0.00 0.00 0.00 16 1018.6
20200228175218 25 90 3.2 12.9 0.00 0.00 0.00 15 1018.5
20200228174218 25 90 6.4 9.7 0.00 0.00 0.00 15 1018.5
20200228173218 24 68 6.4 14.5 0.00 0.00 0.00 15 1018.6
20200228172218 24 68 4.8 14.5 0.00 0.00 0.00 15 1018.7
20200228171218 23 90 3.2 12.9 0.00 0.00 0.00 15 1018.6
20200228170221 23 68 6.4 12.9 0.00 0.00 0.00 15 1018.6
20200228165218 23 90 6.4 14.5 0.00 0.00 0.00 15 1018.5
20200228164219 22 68 4.8 12.9 0.00 0.00 0.00 16 1018.5
20200228163219 22 68 6.4 14.5 0.00 0.00 0.00 16 1018.4
20200228162221 23 68 6.4 14.5 0.00 0.00 0.00 15 1018.5
20200228161219 23 68 4.8 11.3 0.00 0.00 0.00 15 1018.8
20200228160218 22 90 4.8 11.3 0.00 0.00 0.00 15 1018.3
20200228155218 22 68 12.9 16.1 0.00 0.00 0.00 14 1018.0
20200228154218 22 68 4.8 14.5 0.00 0.00 0.00 15 1018.0
20200228153218 22 45 1.6 6.4 0.00 0.00 0.00 15 1018.0
20200228152218 22 90 1.6 6.4 0.00 0.00 0.00 15 1017.8
20200228151219 22 68 3.2 6.4 0.00 0.00 0.00 15 1017.6
20200228150218 -17 0.0 0.0 0.00 0.00 0.00
20200228145218 -17 0.0 0.0 0.00 0.00 0.00
20200228144218 -17 0.0 0.0 0.00 0.00 0.00
20200228143222 -17 0.0 0.0 0.00 0.00 0.00
20200228142218 -17 0.0 0.0 0.00 0.00 0.00
20200228141218 -17 0.0 0.0 0.00 0.00 0.00
20200228140218 -17 0.0 0.0 0.00 0.00 0.00
20200228135218 -17 0.0 0.0 0.00 0.00 0.00
20200228134223 18 0.0 0.0 0.00 0.00 0.00 20 1017.0
20200228133218 18 0.0 0.0 0.00 0.00 0.00 20 1017.0
20200228132218 18 0.0 0.0 0.00 0.00 0.00 20 1017.1
20200228131218 18 0.0 0.0 0.00 0.00 0.00 20 1017.2
20200228130218 18 0.0 0.0 0.00 0.00 0.00 21 1017.0
20200228125220 18 0.0 0.0 0.00 0.00 0.00 21 1016.9
20200228124219 18 0.0 0.0 0.00 0.00 0.00 22 1016.9
20200228123218 18 0.0 0.0 0.00 0.00 0.00 26 1017.0
20200228122217 18 0.0 0.0 0.00 0.00 0.00 28 1017.1
20200228121217 19 0.0 0.0 0.00 0.00 0.00 29 1017.0
20200228120217 19 0.0 0.0 0.00 0.00 0.00 26 1017.0
20200228115217 20 0.0 0.0 0.00 0.00 0.00 22 1017.1
20200228114218 20 0.0 0.0 0.00 0.00 0.00 18 1017.0
20200228113218 19 0.0 0.0 0.00 0.00 0.00 19 1016.8
20200228112218 19 0.0 0.0 0.00 0.00 0.00 19 1016.8
20200228111218 19 0.0 0.0 0.00 0.00 0.00 20 1016.6
20200228110218 19 0.0 0.0 0.00 0.00 0.00 21 1016.6
20200228105217 19 0.0 0.0 0.00 0.00 0.00 21 1016.3
20200228104218 19 0.0 0.0 0.00 0.00 0.00 20 1016.3
20200228103220 19 0.0 0.0 0.00 0.00 0.00 20 1016.2
20200228102218 19 0.0 0.0 0.00 0.00 0.00 20 1016.1
20200228101217 20 0.0 0.0 0.00 0.00 0.00 20 1016.2
20200228100218 20 0.0 0.0 0.00 0.00 0.00 20 1016.2
20200228095218 20 0.0 0.0 0.00 0.00 0.00 20 1016.2
20200228094217 20 0.0 0.0 0.00 0.00 0.00 19 1016.3
20200228093218 20 0.0 0.0 0.00 0.00 0.00 19 1016.3
20200228092217 20 0.0 0.0 0.00 0.00 0.00 19 1016.3
20200228091217 20 0.0 0.0 0.00 0.00 0.00 19 1016.5
20200228090219 20 0.0 0.0 0.00 0.00 0.00 19 1016.5
20200228085219 21 0.0 0.0 0.00 0.00 0.00 18 1016.5
20200228084219 21 0.0 0.0 0.00 0.00 0.00 18 1016.7
20200228083217 21 0.0 0.0 0.00 0.00 0.00 18 1016.7
20200228082217 21 0.0 0.0 0.00 0.00 0.00 18 1016.8
20200228081217 22 0.0 0.0 0.00 0.00 0.00 17 1016.8